createdAt,value
2023-01-25T00:00:12.075Z,1030.72
2023-01-25T00:06:32.035Z,1030.7
2023-01-25T00:12:54.976Z,1030.64
2023-01-25T00:19:15.060Z,1030.64
2023-01-25T00:25:37.968Z,1030.6
2023-01-25T00:31:58.012Z,1030.6
2023-01-25T00:38:21.057Z,1030.51
2023-01-25T00:44:41.027Z,1030.45
2023-01-25T00:51:04.019Z,1030.45
2023-01-25T00:57:24.005Z,1030.37
2023-01-25T01:03:46.974Z,1030.35
2023-01-25T01:10:06.992Z,1030.33
2023-01-25T01:16:30.080Z,1030.27
2023-01-25T01:22:50.073Z,1030.25
2023-01-25T01:29:13.014Z,1030.23
2023-01-25T01:35:33.017Z,1030.25
2023-01-25T01:41:56.037Z,1030.27
2023-01-25T01:48:16.054Z,1030.25
2023-01-25T01:54:39.079Z,1030.27
2023-01-25T02:00:59.084Z,1030.21
2023-01-25T02:07:21.987Z,1030.23
2023-01-25T02:13:42.087Z,1030.17
2023-01-25T02:20:05.003Z,1030.15
2023-01-25T02:26:24.987Z,1030.17
2023-01-25T02:32:48.015Z,1030.15
2023-01-25T02:39:07.993Z,1030.11
2023-01-25T02:45:31.030Z,1030.09
2023-01-25T02:51:51.064Z,1030.05
2023-01-25T02:58:14.036Z,1030.02
2023-01-25T03:04:34.030Z,1030.02
2023-01-25T03:10:57.046Z,1029.94
2023-01-25T03:17:16.979Z,1029.96
2023-01-25T03:23:40.027Z,1029.94
2023-01-25T03:30:00.024Z,1029.92
2023-01-25T03:36:23.139Z,1029.88
2023-01-25T03:42:43.038Z,1029.9
2023-01-25T03:49:06.007Z,1029.82
2023-01-25T03:55:25.992Z,1029.82
2023-01-25T04:01:48.990Z,1029.82
2023-01-25T04:08:09.100Z,1029.8
2023-01-25T04:14:43.883Z,1029.72
2023-01-25T04:39:34.014Z,1029.39
2023-01-25T04:45:57.053Z,1029.35
2023-01-25T04:52:17.044Z,1029.29
2023-01-25T04:58:40.069Z,1029.25
2023-01-25T05:04:59.979Z,1029.18
2023-01-25T05:11:23.032Z,1029.18
2023-01-25T05:17:43.051Z,1029.18
2023-01-25T05:24:05.988Z,1029.16
2023-01-25T05:30:26.093Z,1029.12
2023-01-25T05:36:49.005Z,1029.1
2023-01-25T05:43:08.980Z,1029.04
2023-01-25T05:49:32.014Z,1029.04
2023-01-25T05:55:52.051Z,1028.92
2023-01-25T06:02:15.101Z,1028.92
2023-01-25T06:08:35.001Z,1028.94
2023-01-25T06:14:58.064Z,1028.88
2023-01-25T06:21:18.027Z,1028.9
2023-01-25T06:27:40.974Z,1028.82
2023-01-25T06:34:01.254Z,1028.76
2023-01-25T06:40:23.984Z,1028.76
2023-01-25T06:46:44.071Z,1028.74
2023-01-25T06:53:07.031Z,1028.71
2023-01-25T06:59:27.015Z,1028.74
2023-01-25T07:05:50.029Z,1028.74
2023-01-25T07:12:10.025Z,1028.76
2023-01-25T07:18:32.982Z,1028.76
2023-01-25T07:24:53.053Z,1028.84
2023-01-25T07:31:16.125Z,1028.84
2023-01-25T07:37:35.980Z,1028.82
2023-01-25T07:43:59.061Z,1028.84
2023-01-25T07:50:19.094Z,1028.8
2023-01-25T07:56:42.001Z,1028.72
2023-01-25T08:03:02.063Z,1028.74
2023-01-25T08:09:25.154Z,1028.8
2023-01-25T08:15:44.981Z,1028.84
2023-01-25T08:22:08.053Z,1028.8
2023-01-25T08:28:28.007Z,1028.72
2023-01-25T08:34:50.995Z,1028.72
2023-01-25T08:41:10.972Z,1028.72
2023-01-25T08:47:34.056Z,1028.71
2023-01-25T08:53:54.020Z,1028.56
2023-01-25T09:00:17.044Z,1028.5
2023-01-25T09:06:37.070Z,1028.48
2023-01-25T09:13:00.030Z,1028.46
2023-01-25T09:19:19.993Z,1028.38
2023-01-25T09:25:43.007Z,1028.32
2023-01-25T09:32:03.104Z,1028.3
2023-01-25T09:55:09.038Z,1028.15
2023-01-25T10:01:42.918Z,1028.13
2023-01-25T10:07:52.012Z,1028.07
2023-01-25T10:14:15.035Z,1027.97
2023-01-25T10:20:35.244Z,1027.93
2023-01-25T10:26:58.033Z,1027.83
2023-01-25T10:33:18.063Z,1027.76
2023-01-25T10:39:40.982Z,1027.7
2023-01-25T10:46:01.024Z,1027.62
2023-01-25T10:52:25.251Z,1027.58
2023-01-25T10:58:46.316Z,1027.42
2023-01-25T11:05:09.352Z,1027.32
2023-01-25T11:11:29.034Z,1027.31
2023-01-25T11:17:51.985Z,1027.25
2023-01-25T11:24:12.219Z,1027.17
2023-01-25T11:30:35.041Z,1027.11
2023-01-25T11:36:54.995Z,1027.03
2023-01-25T11:43:17.989Z,1026.97
2023-01-25T11:49:39.001Z,1026.87
2023-01-25T11:56:02.034Z,1026.76
2023-01-25T12:02:22.080Z,1026.64
2023-01-25T12:08:45.033Z,1026.54
2023-01-25T12:15:07.241Z,1026.37
2023-01-25T12:21:31.735Z,1026.17
2023-01-25T12:27:48.059Z,1025.97
2023-01-25T12:34:11.124Z,1025.83
2023-01-25T12:40:31.051Z,1025.73
2023-01-25T12:46:54.082Z,1025.53
2023-01-25T12:53:13.991Z,1025.4
2023-01-25T12:59:37.012Z,1025.22
2023-01-25T13:05:57.037Z,1025.12
2023-01-25T13:12:20.009Z,1025.01
2023-01-25T13:18:40.022Z,1024.93
2023-01-25T13:25:03.023Z,1024.81
2023-01-25T13:31:22.987Z,1024.69
2023-01-25T13:37:46.047Z,1024.56
2023-01-25T13:44:06.003Z,1024.42
2023-01-25T13:50:29.044Z,1024.32
2023-01-25T13:56:49.002Z,1024.28
2023-01-25T14:03:12.077Z,1024.22
2023-01-25T14:09:32.046Z,1024.16
2023-01-25T14:15:54.999Z,1024.11
2023-01-25T14:22:15.008Z,1024.09
2023-01-25T14:28:38.041Z,1024.09
2023-01-25T14:34:58.033Z,1024.01
2023-01-25T14:57:47.053Z,1023.83
2023-01-25T15:04:10.030Z,1023.79
2023-01-25T15:10:29.987Z,1023.72
2023-01-25T15:16:53.115Z,1023.7
2023-01-25T15:23:12.991Z,1023.62
2023-01-25T15:29:36.020Z,1023.56
2023-01-25T15:35:56.003Z,1023.52
2023-01-25T15:42:19.368Z,1023.37
2023-01-25T15:48:38.999Z,1023.31
2023-01-25T15:55:02.490Z,1023.31
2023-01-25T16:01:22.191Z,1023.14
2023-01-25T16:07:44.979Z,1023.04
2023-01-25T16:14:05.007Z,1023
2023-01-25T16:20:27.977Z,1023.02
2023-01-25T16:26:49.190Z,1023.04
2023-01-25T16:33:12.066Z,1023.04
2023-01-25T16:39:32.151Z,1023.02
2023-01-25T16:45:55.077Z,1022.98
2023-01-25T16:52:15.107Z,1022.92
2023-01-25T16:58:37.993Z,1022.88
2023-01-25T17:04:58.056Z,1022.8
2023-01-25T17:11:21.090Z,1022.8
2023-01-25T17:17:40.980Z,1022.8
2023-01-25T17:24:04.302Z,1022.82
2023-01-25T17:30:24.069Z,1022.77
2023-01-25T17:36:46.986Z,1022.67
2023-01-25T17:43:07.066Z,1022.65
2023-01-25T17:49:31.053Z,1022.61
2023-01-25T17:55:51.040Z,1022.53
2023-01-25T18:02:14.170Z,1022.43
2023-01-25T18:08:34.001Z,1022.43
2023-01-25T18:14:57.007Z,1022.41
2023-01-25T18:21:17.293Z,1022.35
2023-01-25T18:27:40.313Z,1022.32
2023-01-25T18:33:59.991Z,1022.3
2023-01-25T18:40:23.036Z,1022.28
2023-01-25T18:46:43.209Z,1022.24
2023-01-25T18:53:06.146Z,1022.24
2023-01-25T18:59:26.150Z,1022.24
2023-01-25T19:05:49.006Z,1022.14
2023-01-25T19:12:09.053Z,1022.08
2023-01-25T19:18:32.058Z,1021.96
2023-01-25T19:24:51.994Z,1021.88
2023-01-25T19:31:16.205Z,1021.83
2023-01-25T19:37:35.987Z,1021.75
2023-01-25T19:55:22.510Z,1021.57
2023-01-25T20:01:42.065Z,1021.45
2023-01-25T20:08:23.019Z,1021.32
2023-01-25T20:14:43.039Z,1021.2
2023-01-25T20:21:06.050Z,1021.06
2023-01-25T20:27:26.017Z,1020.93
2023-01-25T20:33:49.038Z,1020.82
2023-01-25T20:40:09.080Z,1020.74
2023-01-25T20:46:32.008Z,1020.72
2023-01-25T20:52:52.028Z,1020.74
2023-01-25T20:59:15.037Z,1020.74
2023-01-25T21:05:34.983Z,1020.68
2023-01-25T21:11:58.052Z,1020.62
2023-01-25T21:18:18.053Z,1020.56
2023-01-25T21:24:40.972Z,1020.51
2023-01-25T21:31:01.091Z,1020.43
2023-01-25T21:37:24.011Z,1020.37
2023-01-25T21:43:44.005Z,1020.33
2023-01-25T21:50:07.073Z,1020.23
2023-01-25T21:56:27.019Z,1020.15
2023-01-25T22:02:50.050Z,1020.15
2023-01-25T22:09:10.032Z,1020.13
2023-01-25T22:15:33.109Z,1020.13
2023-01-25T22:21:53.002Z,1020.15
2023-01-25T22:28:16.039Z,1020.15
2023-01-25T22:34:35.973Z,1020.13
2023-01-25T22:40:59.017Z,1020.11
2023-01-25T22:47:19.123Z,1020.11
2023-01-25T22:53:41.983Z,1020.11
2023-01-25T23:00:02.090Z,1020.07
2023-01-25T23:23:05.010Z,1019.98
2023-01-25T23:29:24.967Z,1019.92
2023-01-25T23:35:48.090Z,1019.84
2023-01-25T23:42:08.048Z,1019.78
2023-01-25T23:48:31.045Z,1019.76
2023-01-25T23:54:50.976Z,1019.7
